Arboles, CO (81121)

4:15 AM MST on December 25, 2014 (GMT -0700)
RAWS ALBINO CANYON NM US | Change Station
CLOSE
Current Station
Personal Weather Station
Location: Navajo Dam, NM
Elevation: 7172 ft
Nearby Weather Stations
Active Advisory: Winter Weather Advisory

Elev 7172 ft 36.98 °N, 107.63 °W | Updated 49 minutes ago

Mostly Cloudy
Mostly Cloudy
25 °F
Feels Like 17 °F
N
7
Wind Variable Wind from ENE
Gusts 14.0 mph

Today
High -- | Low -- °F
--% Chance of Precip.
Yesterday
High -- | Low -- °F
Precip. -- in
7:21 AM 4:58 PM
Waxing Crescent, 15% visible
Pressure 29.74 in
Visibility 10.0 miles
Clouds Overcast 7000 ft
Windchill 17 °F
Dew Point 7 °F
Humidity 46%
Rainfall 0.00 in
Snow Depth Not available.
UV 0 out of 12
Pollen .40 out of 12
Air Quality Not available.
Flu Activity Not available.
METAR KDRO 251053Z AUTO 00000KT 10SM OVC070 M04/M09 A2968 RMK AO2 SLP069 T10391094

More Conditions Fewer Conditions

Pressure 29.74 in
Visibility 10.0 miles
Clouds Overcast 7000 ft
Windchill 17 °F
Dew Point 7 °F
Humidity 46%
Rainfall 0.00 in
Snow Depth Not available.
UV 0 out of 12
Pollen .40 out of 12
Air Quality Not available.
Flu Activity Not available.
METAR KDRO 251053Z AUTO 00000KT 10SM OVC070 M04/M09 A2968 RMK AO2 SLP069 T10391094

More Conditions Fewer Conditions

10-Day Weather Forecast

Almanac

Astronomy

Dec. 25, 2014 Rise Set
Actual Time
Civil Twilight
Nautical Twilight
Astronomical Twilight
Moon
Length of Visible Light
Length of Day
Tomorrow will be .
, % of the Moon is Illuminated

Today's Extremes

State Highs State Lows

Community

WunderPhotos

Upload Photos

1,780,259 photos uploaded!

WunderBlogs® & News

Nearby

Air Quality

  Air Quality AQ Index Pollutant
Not available.

Snow Depth

Station Depth Elevation

Earthquake Activity

City Distance Mag. Time & Date
Minimum magnitude displayed is 2.5.

Coastal Water Temperatures

Place Temperature

Nearby Weather Stations